Terminal Aerodrome Forecast
Issued by NWS

Home | Current Version | Previous Version | Text Only | Print | Product List | Glossary On
Versions: 1 2 3 4 5 6 7 8 9 10 11 12 13 14 15 16 17 18 19
000
FTAK31 PANC 222331
TAFAVD
TAF
PAVD 222331Z 2300/2324 VRB05KT P6SM FEW070 SCT150 BKN250
      TEMPO 2300/2304 11010G23KT
     FM231200 VRB03KT P6SM VCSH SCT060 BKN090
     FM231800 VRB04KT P6SM SCT070
      AMD LTD TO CLD VIS AND WIND=

USA.gov is the U.S. government's official web portal to all federal, state and local government web resources and services.